createdAt,value
2023-02-21T00:05:42.425Z,15.3
2023-02-21T00:11:36.060Z,15.2
2023-02-21T00:17:43.007Z,15.1
2023-02-21T00:23:20.660Z,14.9
2023-02-21T00:29:13.346Z,14.9
2023-02-21T00:35:07.400Z,15.1
2023-02-21T00:40:59.550Z,15.1
2023-02-21T00:46:55.760Z,15.3
2023-02-21T00:52:48.453Z,15.3
2023-02-21T00:58:41.842Z,15.2
2023-02-21T01:04:36.232Z,15.1
2023-02-21T01:10:30.184Z,15.1
2023-02-21T01:16:24.868Z,14.9
2023-02-21T01:22:31.746Z,14.9
2023-02-21T01:28:24.262Z,15.1
2023-02-21T01:34:18.129Z,15.3
2023-02-21T01:40:13.696Z,15.2
2023-02-21T01:45:50.150Z,15.1
2023-02-21T01:51:41.463Z,15.1
2023-02-21T01:57:34.761Z,14.9
2023-02-21T02:03:28.349Z,14.9
2023-02-21T02:09:20.468Z,14.9
2023-02-21T02:15:14.473Z,15.1
2023-02-21T02:21:07.610Z,15.2
2023-02-21T02:26:59.265Z,15.2
2023-02-21T02:32:38.800Z,15.1
2023-02-21T02:38:15.755Z,14.9
2023-02-21T02:43:52.290Z,14.8
2023-02-21T02:49:30.393Z,14.8
2023-02-21T02:55:07.703Z,15
2023-02-21T03:00:43.666Z,15.1
2023-02-21T03:06:22.151Z,15.3
2023-02-21T03:11:47.506Z,15.2
2023-02-21T03:17:23.916Z,15.1
2023-02-21T03:22:46.304Z,15
2023-02-21T03:28:24.116Z,14.9
2023-02-21T03:34:17.964Z,14.9
2023-02-21T03:40:10.648Z,15
2023-02-21T03:46:02.347Z,15.1
2023-02-21T03:52:07.294Z,15.1
2023-02-21T03:58:05.828Z,15.1
2023-02-21T04:03:59.643Z,14.9
2023-02-21T04:09:50.564Z,14.9
2023-02-21T04:15:51.272Z,14.8
2023-02-21T04:21:27.896Z,14.8
2023-02-21T04:27:11.796Z,15
2023-02-21T04:33:05.585Z,15.1
2023-02-21T04:39:09.616Z,15.2
2023-02-21T04:45:14.937Z,15.1
2023-02-21T04:50:52.760Z,14.9
2023-02-21T04:58:59.772Z,14.8
2023-02-21T05:04:53.112Z,14.9
2023-02-21T05:11:01.109Z,15
2023-02-21T05:16:52.946Z,15.2
2023-02-21T05:22:46.087Z,15.1
2023-02-21T05:28:35.298Z,14.9
2023-02-21T05:34:13.884Z,14.9
2023-02-21T05:39:51.249Z,14.8
2023-02-21T05:45:29.721Z,14.8
2023-02-21T05:51:23.114Z,14.9
2023-02-21T05:57:17.612Z,15.1
2023-02-21T06:03:11.230Z,15.1
2023-02-21T06:08:48.935Z,15
2023-02-21T06:14:42.373Z,14.9
2023-02-21T06:20:35.776Z,14.8
2023-02-21T06:26:30.426Z,14.8
2023-02-21T06:32:08.249Z,14.8
2023-02-21T06:38:01.557Z,14.9
2023-02-21T06:43:54.885Z,15.1
2023-02-21T06:49:47.763Z,15.1
2023-02-21T06:55:42.265Z,15
2023-02-21T07:01:35.122Z,15
2023-02-21T07:07:28.086Z,15.1
2023-02-21T07:13:22.535Z,15.1
2023-02-21T07:19:14.831Z,15.1
2023-02-21T07:25:09.454Z,14.9
2023-02-21T07:31:02.378Z,14.9
2023-02-21T07:36:56.873Z,15.1
2023-02-21T07:42:32.911Z,15.2
2023-02-21T07:48:26.328Z,15.1
2023-02-21T07:54:19.004Z,15.1
2023-02-21T07:59:56.630Z,15.2
2023-02-21T08:05:50.581Z,15.3
2023-02-21T08:11:42.871Z,15.3
2023-02-21T08:17:19.949Z,15.1
2023-02-21T08:23:13.913Z,15.2
2023-02-21T08:28:51.427Z,15.4
2023-02-21T08:34:44.979Z,15.4
2023-02-21T08:40:38.020Z,15.3
2023-02-21T08:46:34.620Z,15.4
2023-02-21T08:52:27.800Z,15.5
2023-02-21T08:58:21.001Z,15.5
2023-02-21T09:04:15.065Z,15.4
2023-02-21T09:10:07.544Z,15.3
2023-02-21T09:15:45.574Z,15.1
2023-02-21T09:21:37.321Z,15
2023-02-21T09:27:30.824Z,14.9
2023-02-21T09:33:37.537Z,14.8
2023-02-21T09:39:32.003Z,14.7
2023-02-21T09:45:25.619Z,14.6
2023-02-21T09:51:19.892Z,14.5
2023-02-21T09:57:11.653Z,14.4
2023-02-21T10:03:04.817Z,14.3
2023-02-21T10:08:57.666Z,14.3
2023-02-21T10:14:49.631Z,14.2
2023-02-21T10:20:42.563Z,14.1
2023-02-21T10:26:36.170Z,14.1
2023-02-21T10:32:32.284Z,13.9
2023-02-21T10:38:25.458Z,13.9
2023-02-21T10:44:03.317Z,13.9
2023-02-21T10:49:55.455Z,13.9
2023-02-21T10:56:04.472Z,13.8
2023-02-21T11:01:42.207Z,13.8
2023-02-21T11:06:50.672Z,13.8
2023-02-21T11:12:28.201Z,13.7
2023-02-21T11:17:36.210Z,13.7
2023-02-21T11:22:42.321Z,13.7
2023-02-21T11:28:04.910Z,13.7
2023-02-21T11:33:59.657Z,13.6
2023-02-21T11:39:52.090Z,13.6
2023-02-21T11:45:44.287Z,13.6
2023-02-21T11:51:37.544Z,13.6
2023-02-21T11:57:30.558Z,13.6
2023-02-21T12:03:26.249Z,13.6
2023-02-21T12:09:04.388Z,13.6
2023-02-21T12:14:41.185Z,13.6
2023-02-21T12:20:34.066Z,13.6
2023-02-21T12:26:28.294Z,13.6
2023-02-21T12:32:23.536Z,13.6
2023-02-21T12:38:17.741Z,13.6
2023-02-21T12:44:11.281Z,13.6
2023-02-21T12:50:04.266Z,13.6
2023-02-21T12:55:41.732Z,13.5
2023-02-21T13:01:21.740Z,13.5
2023-02-21T13:07:13.455Z,13.6
2023-02-21T13:13:06.746Z,13.6
2023-02-21T13:18:45.110Z,13.6
2023-02-21T13:24:39.966Z,13.6
2023-02-21T13:30:32.133Z,13.6
2023-02-21T13:36:25.467Z,13.6
2023-02-21T13:42:18.498Z,13.6
2023-02-21T13:48:11.164Z,13.6
2023-02-21T13:54:04.842Z,13.6
2023-02-21T13:59:57.240Z,13.6
2023-02-21T14:05:52.009Z,13.6
2023-02-21T14:11:45.527Z,13.6
2023-02-21T14:17:37.724Z,13.6
2023-02-21T14:23:32.709Z,13.6
2023-02-21T14:29:28.347Z,13.6
2023-02-21T14:35:21.774Z,13.6
2023-02-21T14:41:14.663Z,13.6
2023-02-21T14:47:08.229Z,13.8
2023-02-21T14:53:00.534Z,13.7
2023-02-21T14:58:53.307Z,13.7
2023-02-21T15:04:33.090Z,13.7
2023-02-21T15:10:12.849Z,13.7
2023-02-21T15:16:08.039Z,13.7
2023-02-21T15:22:00.455Z,13.7
2023-02-21T15:27:53.319Z,13.7
2023-02-21T15:33:46.906Z,13.7
2023-02-21T15:39:39.657Z,13.7
2023-02-21T15:45:31.714Z,13.7
2023-02-21T15:51:11.753Z,13.7
2023-02-21T15:57:05.000Z,13.7
2023-02-21T16:02:59.499Z,13.7
2023-02-21T16:08:53.035Z,13.7
2023-02-21T16:14:47.110Z,13.7
2023-02-21T16:20:24.698Z,13.7
2023-02-21T16:26:44.383Z,13.8
2023-02-21T16:32:40.131Z,13.8
2023-02-21T16:38:33.641Z,13.8
2023-02-21T16:44:27.389Z,13.8
2023-02-21T16:50:20.798Z,13.8
2023-02-21T16:55:57.730Z,13.8
2023-02-21T17:01:51.278Z,13.7
2023-02-21T17:07:45.808Z,13.7
2023-02-21T17:13:23.221Z,13.7
2023-02-21T17:19:17.432Z,13.7
2023-02-21T17:25:11.827Z,13.7
2023-02-21T17:31:06.078Z,13.7
2023-02-21T17:37:00.345Z,13.7
2023-02-21T17:42:38.955Z,13.7
2023-02-21T17:48:19.500Z,13.7
2023-02-21T17:54:13.260Z,13.7
2023-02-21T18:00:07.030Z,13.7
2023-02-21T18:05:43.366Z,13.7
2023-02-21T18:11:21.328Z,13.7
2023-02-21T18:17:16.948Z,13.7
2023-02-21T18:23:10.455Z,13.6
2023-02-21T18:28:47.914Z,13.7
2023-02-21T18:34:41.922Z,13.6
2023-02-21T18:40:35.225Z,13.7
2023-02-21T18:46:28.602Z,13.6
2023-02-21T18:52:25.692Z,13.6
2023-02-21T18:58:19.398Z,13.6
2023-02-21T19:03:59.016Z,13.6
2023-02-21T19:09:52.527Z,13.6
2023-02-21T19:15:44.911Z,13.6
2023-02-21T19:21:38.473Z,13.6
2023-02-21T19:27:16.642Z,13.6
2023-02-21T19:33:09.255Z,13.6
2023-02-21T19:39:01.890Z,13.6
2023-02-21T19:44:55.204Z,13.6
2023-02-21T19:50:32.952Z,13.6
2023-02-21T19:56:10.485Z,13.6
2023-02-21T20:02:04.580Z,13.6
2023-02-21T20:07:57.483Z,13.6
2023-02-21T20:13:51.576Z,13.6
2023-02-21T20:19:45.237Z,13.6
2023-02-21T20:25:38.754Z,13.5
2023-02-21T20:31:17.517Z,13.5
2023-02-21T20:36:40.429Z,13.5
2023-02-21T20:41:46.337Z,13.5
2023-02-21T20:47:40.019Z,13.5
2023-02-21T20:53:17.579Z,13.5
2023-02-21T20:59:10.105Z,13.5
2023-02-21T21:05:03.350Z,13.5
2023-02-21T21:10:57.911Z,13.5
2023-02-21T21:16:34.967Z,13.4
2023-02-21T21:21:40.835Z,13.5
2023-02-21T21:27:33.712Z,13.5
2023-02-21T21:33:26.742Z,13.8
2023-02-21T21:39:49.052Z,14.3
2023-02-21T21:45:43.230Z,14.7
2023-02-21T21:51:20.430Z,15.1
2023-02-21T21:56:57.516Z,15.2
2023-02-21T22:02:36.312Z,15.4
2023-02-21T22:08:29.126Z,15.5
2023-02-21T22:14:23.460Z,15.5
2023-02-21T22:20:17.287Z,15.6
2023-02-21T22:26:09.792Z,15.6
2023-02-21T22:32:02.731Z,15.6
2023-02-21T22:37:40.631Z,15.8
2023-02-21T22:43:34.466Z,15.8
2023-02-21T22:49:12.007Z,15.7
2023-02-21T22:55:04.365Z,15.8
2023-02-21T23:00:57.716Z,15.8
2023-02-21T23:06:51.050Z,15.8
2023-02-21T23:12:44.179Z,15.8
2023-02-21T23:18:35.850Z,15.9
2023-02-21T23:23:57.172Z,15.9
2023-02-21T23:29:50.535Z,15.8
2023-02-21T23:35:43.895Z,15.8
2023-02-21T23:41:24.600Z,15.8
2023-02-21T23:47:02.011Z,15.9
2023-02-21T23:52:39.735Z,15.8
2023-02-21T23:58:32.451Z,15.7
